sensor_id;sensor_type;location;lat;lon;timestamp;pressure;altitude;pressure_sealevel;temperature;humidity
55932;BME280;41837;55.700;37.984;2023-04-08T00:02:21;101211.56;;;-2.32;100.00
55932;BME280;41837;55.700;37.984;2023-04-08T00:04:48;101217.66;;;-2.29;100.00
55932;BME280;41837;55.700;37.984;2023-04-08T00:07:14;101215.84;;;-2.31;100.00
55932;BME280;41837;55.700;37.984;2023-04-08T00:09:40;101215.63;;;-2.12;100.00
55932;BME280;41837;55.700;37.984;2023-04-08T00:12:07;101210.41;;;-2.15;100.00
55932;BME280;41837;55.700;37.984;2023-04-08T00:14:34;101218.81;;;-2.19;100.00
55932;BME280;41837;55.700;37.984;2023-04-08T00:17:00;101205.00;;;-2.24;100.00
55932;BME280;41837;55.700;37.984;2023-04-08T00:19:26;101209.13;;;-2.28;100.00
55932;BME280;41837;55.700;37.984;2023-04-08T00:21:52;101224.41;;;-2.31;100.00
55932;BME280;41837;55.700;37.984;2023-04-08T00:24:19;101225.97;;;-2.34;100.00
55932;BME280;41837;55.700;37.984;2023-04-08T00:26:45;101217.44;;;-2.35;100.00
55932;BME280;41837;55.700;37.984;2023-04-08T00:29:11;101224.31;;;-2.34;100.00
55932;BME280;41837;55.700;37.984;2023-04-08T00:31:38;101219.81;;;-2.41;100.00
55932;BME280;41837;55.700;37.984;2023-04-08T00:34:04;101220.56;;;-2.44;100.00
55932;BME280;41837;55.700;37.984;2023-04-08T00:36:31;101221.59;;;-2.38;100.00
55932;BME280;41837;55.700;37.984;2023-04-08T00:38:57;101218.28;;;-2.36;100.00
55932;BME280;41837;55.700;37.984;2023-04-08T00:41:23;101221.66;;;-2.37;100.00
55932;BME280;41837;55.700;37.984;2023-04-08T00:43:51;101212.25;;;-2.36;100.00
55932;BME280;41837;55.700;37.984;2023-04-08T00:46:18;101226.88;;;-2.34;100.00
55932;BME280;41837;55.700;37.984;2023-04-08T00:48:44;101224.09;;;-2.40;100.00
55932;BME280;41837;55.700;37.984;2023-04-08T00:51:11;101229.16;;;-2.41;100.00
55932;BME280;41837;55.700;37.984;2023-04-08T00:53:38;101219.59;;;-2.47;100.00
55932;BME280;41837;55.700;37.984;2023-04-08T00:56:04;101217.78;;;-2.50;100.00
55932;BME280;41837;55.700;37.984;2023-04-08T00:58:31;101222.38;;;-2.41;100.00
55932;BME280;41837;55.700;37.984;2023-04-08T01:01:32;101230.19;;;-2.36;100.00
55932;BME280;41837;55.700;37.984;2023-04-08T01:04:27;101225.16;;;-2.33;100.00
55932;BME280;41837;55.700;37.984;2023-04-08T01:07:14;101225.97;;;-2.34;100.00
55932;BME280;41837;55.700;37.984;2023-04-08T01:09:53;101218.09;;;-2.40;100.00
55932;BME280;41837;55.700;37.984;2023-04-08T01:12:24;101219.13;;;-2.35;100.00
55932;BME280;41837;55.700;37.984;2023-04-08T01:15:04;101219.53;;;-2.23;100.00
55932;BME280;41837;55.700;37.984;2023-04-08T01:17:32;101214.19;;;-2.29;100.00
55932;BME280;41837;55.700;37.984;2023-04-08T01:20:00;101221.81;;;-2.32;100.00
55932;BME280;41837;55.700;37.984;2023-04-08T01:25:20;101212.72;;;-2.48;100.00
55932;BME280;41837;55.700;37.984;2023-04-08T01:27:49;101220.28;;;-2.51;100.00
55932;BME280;41837;55.700;37.984;2023-04-08T01:30:22;101214.88;;;-2.60;100.00
55932;BME280;41837;55.700;37.984;2023-04-08T01:32:52;101224.13;;;-2.64;100.00
55932;BME280;41837;55.700;37.984;2023-04-08T01:35:21;101228.63;;;-2.83;100.00
55932;BME280;41837;55.700;37.984;2023-04-08T01:37:50;101231.94;;;-2.85;100.00
55932;BME280;41837;55.700;37.984;2023-04-08T01:40:18;101227.41;;;-2.92;100.00
55932;BME280;41837;55.700;37.984;2023-04-08T01:42:47;101230.81;;;-2.93;100.00
55932;BME280;41837;55.700;37.984;2023-04-08T01:45:14;101221.38;;;-2.94;100.00
55932;BME280;41837;55.700;37.984;2023-04-08T01:47:43;101222.25;;;-2.94;100.00
55932;BME280;41837;55.700;37.984;2023-04-08T01:50:12;101226.97;;;-2.81;100.00
55932;BME280;41837;55.700;37.984;2023-04-08T01:52:42;101230.16;;;-2.88;100.00
55932;BME280;41837;55.700;37.984;2023-04-08T01:55:11;101224.81;;;-2.94;100.00
55932;BME280;41837;55.700;37.984;2023-04-08T01:57:38;101230.03;;;-2.91;100.00
55932;BME280;41837;55.700;37.984;2023-04-08T02:00:08;101239.47;;;-2.90;100.00
55932;BME280;41837;55.700;37.984;2023-04-08T02:02:47;101227.22;;;-2.98;100.00
55932;BME280;41837;55.700;37.984;2023-04-08T02:05:14;101233.44;;;-2.92;100.00
55932;BME280;41837;55.700;37.984;2023-04-08T02:07:40;101237.72;;;-2.91;100.00
55932;BME280;41837;55.700;37.984;2023-04-08T02:10:07;101235.75;;;-2.98;100.00
55932;BME280;41837;55.700;37.984;2023-04-08T02:12:33;101224.75;;;-2.95;100.00
55932;BME280;41837;55.700;37.984;2023-04-08T02:15:01;101231.19;;;-2.83;100.00
55932;BME280;41837;55.700;37.984;2023-04-08T02:17:42;101229.22;;;-2.90;100.00
55932;BME280;41837;55.700;37.984;2023-04-08T02:20:30;101230.56;;;-3.00;100.00
55932;BME280;41837;55.700;37.984;2023-04-08T02:23:19;101224.06;;;-3.15;100.00
55932;BME280;41837;55.700;37.984;2023-04-08T02:25:46;101232.53;;;-3.16;100.00
55932;BME280;41837;55.700;37.984;2023-04-08T02:28:14;101236.91;;;-3.12;100.00
55932;BME280;41837;55.700;37.984;2023-04-08T02:30:47;101239.59;;;-3.09;100.00
55932;BME280;41837;55.700;37.984;2023-04-08T02:33:17;101229.31;;;-3.11;100.00
55932;BME280;41837;55.700;37.984;2023-04-08T02:35:45;101234.44;;;-3.11;100.00
55932;BME280;41837;55.700;37.984;2023-04-08T02:38:12;101235.31;;;-3.10;100.00
55932;BME280;41837;55.700;37.984;2023-04-08T02:40:40;101236.13;;;-3.11;100.00
55932;BME280;41837;55.700;37.984;2023-04-08T02:43:06;101238.50;;;-3.16;100.00
55932;BME280;41837;55.700;37.984;2023-04-08T02:45:37;101239.16;;;-3.22;100.00
55932;BME280;41837;55.700;37.984;2023-04-08T02:48:04;101252.06;;;-3.19;100.00
55932;BME280;41837;55.700;37.984;2023-04-08T02:50:31;101255.59;;;-3.15;100.00
55932;BME280;41837;55.700;37.984;2023-04-08T02:52:58;101249.94;;;-3.06;100.00
55932;BME280;41837;55.700;37.984;2023-04-08T02:55:24;101249.47;;;-2.96;100.00
55932;BME280;41837;55.700;37.984;2023-04-08T02:57:50;101255.63;;;-2.91;100.00
55932;BME280;41837;55.700;37.984;2023-04-08T03:00:16;101257.25;;;-2.93;100.00
55932;BME280;41837;55.700;37.984;2023-04-08T03:02:43;101255.69;;;-2.89;100.00
55932;BME280;41837;55.700;37.984;2023-04-08T03:05:10;101256.88;;;-2.79;100.00
55932;BME280;41837;55.700;37.984;2023-04-08T03:07:36;101257.06;;;-2.75;100.00
55932;BME280;41837;55.700;37.984;2023-04-08T03:10:03;101260.78;;;-2.65;100.00
55932;BME280;41837;55.700;37.984;2023-04-08T03:12:30;101249.84;;;-2.61;100.00
55932;BME280;41837;55.700;37.984;2023-04-08T03:14:56;101260.69;;;-2.44;100.00
55932;BME280;41837;55.700;37.984;2023-04-08T03:17:22;101264.41;;;-2.34;100.00
55932;BME280;41837;55.700;37.984;2023-04-08T03:19:48;101253.50;;;-2.29;100.00
55932;BME280;41837;55.700;37.984;2023-04-08T03:22:14;101247.59;;;-2.26;100.00
55932;BME280;41837;55.700;37.984;2023-04-08T03:24:40;101262.78;;;-2.07;100.00
55932;BME280;41837;55.700;37.984;2023-04-08T03:27:07;101252.00;;;-1.96;100.00
55932;BME280;41837;55.700;37.984;2023-04-08T03:29:33;101255.53;;;-1.93;100.00
55932;BME280;41837;55.700;37.984;2023-04-08T03:31:59;101257.72;;;-1.78;100.00
55932;BME280;41837;55.700;37.984;2023-04-08T03:34:26;101248.34;;;-0.89;100.00
55932;BME280;41837;55.700;37.984;2023-04-08T03:36:52;101234.88;;;0.61;96.65
55932;BME280;41837;55.700;37.984;2023-04-08T03:39:18;101236.69;;;1.06;87.99
55932;BME280;41837;55.700;37.984;2023-04-08T03:41:45;101238.38;;;1.49;83.14
55932;BME280;41837;55.700;37.984;2023-04-08T03:44:11;101241.63;;;1.91;79.32
55932;BME280;41837;55.700;37.984;2023-04-08T03:46:38;101248.19;;;0.81;82.50
55932;BME280;41837;55.700;37.984;2023-04-08T03:49:04;101241.91;;;1.58;80.07
55932;BME280;41837;55.700;37.984;2023-04-08T03:51:30;101238.03;;;1.81;77.21
55932;BME280;41837;55.700;37.984;2023-04-08T03:53:57;101239.75;;;2.37;73.63
55932;BME280;41837;55.700;37.984;2023-04-08T03:56:23;101245.09;;;3.17;70.13
55932;BME280;41837;55.700;37.984;2023-04-08T03:58:50;101222.38;;;3.71;66.28
55932;BME280;41837;55.700;37.984;2023-04-08T04:01:16;101219.66;;;3.57;65.50
55932;BME280;41837;55.700;37.984;2023-04-08T04:03:42;101233.78;;;3.96;63.59
55932;BME280;41837;55.700;37.984;2023-04-08T04:06:08;101239.78;;;3.90;63.59
55932;BME280;41837;55.700;37.984;2023-04-08T04:08:35;101241.91;;;4.45;63.12
55932;BME280;41837;55.700;37.984;2023-04-08T04:11:01;101239.94;;;4.14;62.67
55932;BME280;41837;55.700;37.984;2023-04-08T04:13:27;101237.19;;;3.92;63.03
55932;BME280;41837;55.700;37.984;2023-04-08T04:15:54;101238.00;;;3.86;62.95
55932;BME280;41837;55.700;37.984;2023-04-08T04:18:20;101240.22;;;4.52;61.68
55932;BME280;41837;55.700;37.984;2023-04-08T04:20:46;101249.00;;;4.86;60.79
55932;BME280;41837;55.700;37.984;2023-04-08T04:23:12;101237.81;;;4.91;59.70
55932;BME280;41837;55.700;37.984;2023-04-08T04:25:42;101243.28;;;3.99;61.75
55932;BME280;41837;55.700;37.984;2023-04-08T04:28:12;101229.50;;;4.00;62.29
55932;BME280;41837;55.700;37.984;2023-04-08T04:30:39;101243.31;;;4.03;62.82
55932;BME280;41837;55.700;37.984;2023-04-08T04:33:05;101249.03;;;4.90;59.75
55932;BME280;41837;55.700;37.984;2023-04-08T04:35:32;101246.63;;;5.56;59.14
55932;BME280;41837;55.700;37.984;2023-04-08T04:37:58;101250.16;;;6.09;56.16
55932;BME280;41837;55.700;37.984;2023-04-08T04:40:25;101250.16;;;6.37;55.76
55932;BME280;41837;55.700;37.984;2023-04-08T04:42:52;101247.56;;;6.29;55.61
55932;BME280;41837;55.700;37.984;2023-04-08T04:45:30;101248.38;;;6.51;53.77
55932;BME280;41837;55.700;37.984;2023-04-08T04:47:57;101247.56;;;6.37;54.18
55932;BME280;41837;55.700;37.984;2023-04-08T04:50:23;101249.97;;;6.92;53.36
55932;BME280;41837;55.700;37.984;2023-04-08T04:52:50;101242.31;;;6.41;53.72
55932;BME280;41837;55.700;37.984;2023-04-08T04:55:16;101237.72;;;7.20;52.21
55932;BME280;41837;55.700;37.984;2023-04-08T04:57:42;101246.56;;;6.76;52.96
55932;BME280;41837;55.700;37.984;2023-04-08T05:00:09;101240.19;;;7.43;51.84
55932;BME280;41837;55.700;37.984;2023-04-08T05:02:36;101241.44;;;8.09;51.00
55932;BME280;41837;55.700;37.984;2023-04-08T05:05:02;101239.16;;;7.69;50.01
55932;BME280;41837;55.700;37.984;2023-04-08T05:07:29;101245.25;;;7.63;50.29
55932;BME280;41837;55.700;37.984;2023-04-08T05:09:55;101240.28;;;8.39;48.14
55932;BME280;41837;55.700;37.984;2023-04-08T05:12:22;101237.44;;;8.64;48.03
55932;BME280;41837;55.700;37.984;2023-04-08T05:14:47;101248.19;;;8.33;48.79
55932;BME280;41837;55.700;37.984;2023-04-08T05:17:14;101241.47;;;8.91;47.66
55932;BME280;41837;55.700;37.984;2023-04-08T05:19:40;101249.41;;;9.50;46.40
55932;BME280;41837;55.700;37.984;2023-04-08T05:22:07;101245.91;;;9.50;46.36
55932;BME280;41837;55.700;37.984;2023-04-08T05:24:33;101245.81;;;9.56;45.80
55932;BME280;41837;55.700;37.984;2023-04-08T05:26:59;101261.81;;;8.58;46.95
55932;BME280;41837;55.700;37.984;2023-04-08T05:29:27;101257.50;;;9.30;46.63
55932;BME280;41837;55.700;37.984;2023-04-08T05:31:53;101257.78;;;9.71;45.92
55932;BME280;41837;55.700;37.984;2023-04-08T05:34:21;101257.13;;;8.93;47.88
55932;BME280;41837;55.700;37.984;2023-04-08T05:36:49;101258.84;;;8.91;46.87
55932;BME280;41837;55.700;37.984;2023-04-08T05:39:18;101243.88;;;9.10;46.75
55932;BME280;41837;55.700;37.984;2023-04-08T05:41:45;101259.28;;;9.86;46.82
55932;BME280;41837;55.700;37.984;2023-04-08T05:44:12;101264.09;;;9.56;45.86
55932;BME280;41837;55.700;37.984;2023-04-08T05:46:38;101264.63;;;9.78;45.74
55932;BME280;41837;55.700;37.984;2023-04-08T05:49:04;101259.53;;;9.70;45.80
55932;BME280;41837;55.700;37.984;2023-04-08T05:51:31;101258.06;;;10.58;45.46
55932;BME280;41837;55.700;37.984;2023-04-08T05:53:57;101258.13;;;9.46;45.42
55932;BME280;41837;55.700;37.984;2023-04-08T05:56:23;101258.81;;;9.61;46.97
55932;BME280;41837;55.700;37.984;2023-04-08T05:58:49;101268.13;;;10.32;45.51
55932;BME280;41837;55.700;37.984;2023-04-08T06:01:16;101263.88;;;10.24;45.24
55932;BME280;41837;55.700;37.984;2023-04-08T06:03:43;101264.69;;;9.74;45.82
55932;BME280;41837;55.700;37.984;2023-04-08T06:06:12;101255.38;;;8.93;46.60
55932;BME280;41837;55.700;37.984;2023-04-08T06:08:39;101256.34;;;10.06;46.17
55932;BME280;41837;55.700;37.984;2023-04-08T06:11:06;101249.25;;;10.14;45.28
55932;BME280;41837;55.700;37.984;2023-04-08T06:13:32;101256.59;;;9.90;46.68
55932;BME280;41837;55.700;37.984;2023-04-08T06:16:09;101258.25;;;9.39;46.40
55932;BME280;41837;55.700;37.984;2023-04-08T06:18:36;101254.97;;;9.24;46.97
55932;BME280;41837;55.700;37.984;2023-04-08T06:21:03;101246.97;;;9.37;46.93
55932;BME280;41837;55.700;37.984;2023-04-08T06:23:29;101254.22;;;9.13;46.62
55932;BME280;41837;55.700;37.984;2023-04-08T06:25:55;101243.84;;;9.11;47.41
55932;BME280;41837;55.700;37.984;2023-04-08T06:28:22;101257.06;;;10.16;46.16
55932;BME280;41837;55.700;37.984;2023-04-08T06:30:48;101252.94;;;10.01;45.22
55932;BME280;41837;55.700;37.984;2023-04-08T06:33:14;101259.72;;;10.13;46.66
55932;BME280;41837;55.700;37.984;2023-04-08T06:35:41;101254.25;;;10.76;44.45
55932;BME280;41837;55.700;37.984;2023-04-08T06:38:07;101259.38;;;9.81;45.85
55932;BME280;41837;55.700;37.984;2023-04-08T06:40:33;101261.69;;;10.00;46.20
55932;BME280;41837;55.700;37.984;2023-04-08T06:42:59;101258.59;;;10.76;44.20
55932;BME280;41837;55.700;37.984;2023-04-08T06:45:34;101263.16;;;10.66;44.45
55932;BME280;41837;55.700;37.984;2023-04-08T06:48:00;101250.84;;;10.21;44.81
55932;BME280;41837;55.700;37.984;2023-04-08T06:50:26;101259.00;;;10.56;45.17
55932;BME280;41837;55.700;37.984;2023-04-08T06:52:52;101260.25;;;10.33;45.10
55932;BME280;41837;55.700;37.984;2023-04-08T06:55:20;101259.84;;;10.58;44.38
55932;BME280;41837;55.700;37.984;2023-04-08T06:57:49;101259.94;;;9.43;46.68
55932;BME280;41837;55.700;37.984;2023-04-08T07:00:15;101259.63;;;8.99;47.18
55932;BME280;41837;55.700;37.984;2023-04-08T07:02:41;101260.03;;;9.94;46.33
55932;BME280;41837;55.700;37.984;2023-04-08T07:05:07;101255.34;;;10.64;44.56
55932;BME280;41837;55.700;37.984;2023-04-08T07:07:34;101255.13;;;11.19;44.04
55932;BME280;41837;55.700;37.984;2023-04-08T07:10:00;101260.66;;;11.05;44.93
55932;BME280;41837;55.700;37.984;2023-04-08T07:12:26;101251.06;;;11.45;43.16
55932;BME280;41837;55.700;37.984;2023-04-08T07:14:52;101245.63;;;11.90;43.19
55932;BME280;41837;55.700;37.984;2023-04-08T07:17:18;101247.41;;;11.88;42.93
55932;BME280;41837;55.700;37.984;2023-04-08T07:19:44;101252.28;;;11.28;43.41
55932;BME280;41837;55.700;37.984;2023-04-08T07:22:11;101242.97;;;12.27;41.72
55932;BME280;41837;55.700;37.984;2023-04-08T07:24:37;101242.69;;;12.38;41.80
55932;BME280;41837;55.700;37.984;2023-04-08T07:27:03;101238.31;;;12.04;42.20
55932;BME280;41837;55.700;37.984;2023-04-08T07:29:30;101234.78;;;13.02;41.21
55932;BME280;41837;55.700;37.984;2023-04-08T07:31:56;101241.06;;;12.65;41.95
55932;BME280;41837;55.700;37.984;2023-04-08T07:34:22;101234.00;;;12.36;41.79
55932;BME280;41837;55.700;37.984;2023-04-08T07:36:48;101232.75;;;12.17;42.06
55932;BME280;41837;55.700;37.984;2023-04-08T07:39:14;101238.13;;;12.12;41.58
55932;BME280;41837;55.700;37.984;2023-04-08T07:41:40;101225.84;;;12.78;41.93
55932;BME280;41837;55.700;37.984;2023-04-08T07:44:06;101229.28;;;11.80;42.45
55932;BME280;41837;55.700;37.984;2023-04-08T07:46:36;101231.63;;;10.72;44.03
55932;BME280;41837;55.700;37.984;2023-04-08T07:49:03;101231.69;;;10.69;45.06
55932;BME280;41837;55.700;37.984;2023-04-08T07:51:29;101230.13;;;12.17;43.11
55932;BME280;41837;55.700;37.984;2023-04-08T07:53:56;101235.75;;;11.65;43.86
55932;BME280;41837;55.700;37.984;2023-04-08T07:56:21;101226.91;;;12.07;43.18
55932;BME280;41837;55.700;37.984;2023-04-08T07:58:47;101225.84;;;12.47;42.41
55932;BME280;41837;55.700;37.984;2023-04-08T08:03:43;101224.72;;;12.23;42.13
55932;BME280;41837;55.700;37.984;2023-04-08T08:06:12;101222.13;;;12.54;43.09
55932;BME280;41837;55.700;37.984;2023-04-08T08:08:39;101226.59;;;12.83;42.14
55932;BME280;41837;55.700;37.984;2023-04-08T08:11:05;101223.38;;;13.03;41.31
55932;BME280;41837;55.700;37.984;2023-04-08T08:13:33;101217.03;;;13.11;41.07
55932;BME280;41837;55.700;37.984;2023-04-08T08:15:59;101217.78;;;11.86;42.57
55932;BME280;41837;55.700;37.984;2023-04-08T08:18:26;101213.38;;;12.55;42.00
55932;BME280;41837;55.700;37.984;2023-04-08T08:20:52;101218.31;;;13.55;40.95
55932;BME280;41837;55.700;37.984;2023-04-08T08:23:18;101212.69;;;12.80;41.66
55932;BME280;41837;55.700;37.984;2023-04-08T08:25:44;101210.63;;;12.27;41.35
55932;BME280;41837;55.700;37.984;2023-04-08T08:28:11;101207.28;;;13.14;41.25
55932;BME280;41837;55.700;37.984;2023-04-08T08:30:38;101208.19;;;12.21;42.05
55932;BME280;41837;55.700;37.984;2023-04-08T08:33:04;101199.78;;;11.72;42.82
55932;BME280;41837;55.700;37.984;2023-04-08T08:35:31;101193.34;;;11.49;43.58
55932;BME280;41837;55.700;37.984;2023-04-08T08:38:08;101198.91;;;10.96;43.69
55932;BME280;41837;55.700;37.984;2023-04-08T08:40:35;101200.88;;;11.26;44.01
55932;BME280;41837;55.700;37.984;2023-04-08T08:43:01;101176.75;;;11.11;44.71
55932;BME280;41837;55.700;37.984;2023-04-08T08:45:29;101193.94;;;10.82;44.39
55932;BME280;41837;55.700;37.984;2023-04-08T08:48:07;101198.28;;;10.40;45.47
55932;BME280;41837;55.700;37.984;2023-04-08T08:50:34;101194.31;;;10.64;45.30
55932;BME280;41837;55.700;37.984;2023-04-08T08:53:01;101195.31;;;11.00;44.68
55932;BME280;41837;55.700;37.984;2023-04-08T08:55:41;101186.63;;;11.37;44.25
55932;BME280;41837;55.700;37.984;2023-04-08T08:58:07;101182.50;;;12.01;43.83
55932;BME280;41837;55.700;37.984;2023-04-08T09:00:36;101183.44;;;12.31;43.41
55932;BME280;41837;55.700;37.984;2023-04-08T09:03:23;101187.88;;;11.21;43.20
55932;BME280;41837;55.700;37.984;2023-04-08T09:05:55;101187.03;;;11.20;42.47
55932;BME280;41837;55.700;37.984;2023-04-08T09:08:33;101191.22;;;10.87;41.96
55932;BME280;41837;55.700;37.984;2023-04-08T09:11:19;101185.25;;;11.21;42.10
55932;BME280;41837;55.700;37.984;2023-04-08T09:13:48;101181.03;;;11.15;41.42
55932;BME280;41837;55.700;37.984;2023-04-08T09:16:16;101172.72;;;11.35;41.70
55932;BME280;41837;55.700;37.984;2023-04-08T09:18:45;101172.91;;;11.64;41.27
55932;BME280;41837;55.700;37.984;2023-04-08T09:21:12;101168.34;;;12.06;40.81
55932;BME280;41837;55.700;37.984;2023-04-08T09:23:43;101177.97;;;11.71;41.70
55932;BME280;41837;55.700;37.984;2023-04-08T09:26:31;101168.09;;;11.47;40.71
55932;BME280;41837;55.700;37.984;2023-04-08T09:29:03;101185.25;;;10.82;40.27
55932;BME280;41837;55.700;37.984;2023-04-08T09:31:42;101184.63;;;11.10;40.91
55932;BME280;41837;55.700;37.984;2023-04-08T09:34:13;101179.69;;;10.55;41.92
55932;BME280;41837;55.700;37.984;2023-04-08T09:36:42;101172.50;;;11.45;41.47
55932;BME280;41837;55.700;37.984;2023-04-08T09:39:09;101173.06;;;11.57;41.08
55932;BME280;41837;55.700;37.984;2023-04-08T09:41:37;101176.13;;;11.01;41.75
55932;BME280;41837;55.700;37.984;2023-04-08T09:44:06;101174.06;;;11.52;41.18
55932;BME280;41837;55.700;37.984;2023-04-08T09:46:44;101172.63;;;10.59;42.77
55932;BME280;41837;55.700;37.984;2023-04-08T09:49:37;101172.28;;;10.76;43.47
55932;BME280;41837;55.700;37.984;2023-04-08T09:55:02;101158.66;;;11.39;41.56
55932;BME280;41837;55.700;37.984;2023-04-08T09:58:04;101154.75;;;11.57;40.87
55932;BME280;41837;55.700;37.984;2023-04-08T10:00:38;101155.56;;;11.60;41.67
55932;BME280;41837;55.700;37.984;2023-04-08T10:03:09;101145.94;;;11.24;42.15
55932;BME280;41837;55.700;37.984;2023-04-08T10:05:37;101151.66;;;11.40;41.14
55932;BME280;41837;55.700;37.984;2023-04-08T10:08:05;101148.56;;;11.24;41.26
55932;BME280;41837;55.700;37.984;2023-04-08T10:10:38;101150.19;;;11.64;40.34
55932;BME280;41837;55.700;37.984;2023-04-08T10:13:06;101128.56;;;11.90;40.81
55932;BME280;41837;55.700;37.984;2023-04-08T10:15:34;101143.38;;;11.93;40.92
55932;BME280;41837;55.700;37.984;2023-04-08T10:23:00;101132.47;;;11.39;42.01
55932;BME280;41837;55.700;37.984;2023-04-08T10:25:36;101136.34;;;11.59;41.66
55932;BME280;41837;55.700;37.984;2023-04-08T10:30:52;101137.72;;;11.39;42.33
55932;BME280;41837;55.700;37.984;2023-04-08T10:38:41;101126.72;;;11.96;41.77
55932;BME280;41837;55.700;37.984;2023-04-08T10:41:11;101131.69;;;11.36;42.86
55932;BME280;41837;55.700;37.984;2023-04-08T10:43:46;101136.25;;;11.28;42.30
55932;BME280;41837;55.700;37.984;2023-04-08T10:46:12;101128.59;;;11.56;41.18
55932;BME280;41837;55.700;37.984;2023-04-08T10:48:38;101120.09;;;11.81;40.74
55932;BME280;41837;55.700;37.984;2023-04-08T10:51:05;101131.84;;;12.00;40.05
55932;BME280;41837;55.700;37.984;2023-04-08T10:53:38;101124.69;;;11.71;40.53
55932;BME280;41837;55.700;37.984;2023-04-08T10:56:14;101129.19;;;11.31;40.11
55932;BME280;41837;55.700;37.984;2023-04-08T10:58:50;101121.19;;;11.37;40.83
55932;BME280;41837;55.700;37.984;2023-04-08T11:01:17;101113.78;;;11.53;40.58
55932;BME280;41837;55.700;37.984;2023-04-08T11:03:44;101115.63;;;11.50;40.86
55932;BME280;41837;55.700;37.984;2023-04-08T11:06:10;101114.50;;;11.94;40.53
55932;BME280;41837;55.700;37.984;2023-04-08T11:08:37;101109.00;;;12.05;39.98
55932;BME280;41837;55.700;37.984;2023-04-08T11:11:04;101111.19;;;12.50;39.84
55932;BME280;41837;55.700;37.984;2023-04-08T11:13:37;101098.75;;;12.57;40.60
55932;BME280;41837;55.700;37.984;2023-04-08T11:16:05;101093.72;;;11.87;40.58
55932;BME280;41837;55.700;37.984;2023-04-08T11:18:34;101081.59;;;11.83;41.08
55932;BME280;41837;55.700;37.984;2023-04-08T11:21:01;101097.13;;;11.57;40.78
55932;BME280;41837;55.700;37.984;2023-04-08T11:23:27;101102.53;;;11.50;42.63
55932;BME280;41837;55.700;37.984;2023-04-08T11:25:53;101090.50;;;12.10;42.36
55932;BME280;41837;55.700;37.984;2023-04-08T11:28:21;101092.75;;;12.54;41.70
55932;BME280;41837;55.700;37.984;2023-04-08T11:30:48;101087.53;;;11.91;42.10
55932;BME280;41837;55.700;37.984;2023-04-08T11:33:14;101097.19;;;11.87;41.78
55932;BME280;41837;55.700;37.984;2023-04-08T11:35:42;101081.94;;;11.70;42.49
55932;BME280;41837;55.700;37.984;2023-04-08T11:38:11;101084.06;;;11.56;42.53
55932;BME280;41837;55.700;37.984;2023-04-08T11:40:38;101085.91;;;11.85;42.87
55932;BME280;41837;55.700;37.984;2023-04-08T11:43:12;101076.19;;;11.89;42.38
55932;BME280;41837;55.700;37.984;2023-04-08T11:45:41;101089.84;;;12.03;42.41
55932;BME280;41837;55.700;37.984;2023-04-08T11:48:11;101086.44;;;11.65;42.90
55932;BME280;41837;55.700;37.984;2023-04-08T11:50:40;101092.41;;;11.36;42.47
55932;BME280;41837;55.700;37.984;2023-04-08T11:53:20;101083.66;;;11.37;42.45
55932;BME280;41837;55.700;37.984;2023-04-08T11:55:46;101079.97;;;11.46;42.22
55932;BME280;41837;55.700;37.984;2023-04-08T11:58:13;101080.59;;;11.54;41.73
55932;BME280;41837;55.700;37.984;2023-04-08T12:00:40;101084.69;;;11.64;41.59
55932;BME280;41837;55.700;37.984;2023-04-08T12:03:08;101077.84;;;11.60;41.17
55932;BME280;41837;55.700;37.984;2023-04-08T12:05:35;101070.66;;;11.34;42.49
55932;BME280;41837;55.700;37.984;2023-04-08T12:08:01;101068.75;;;11.73;42.82
55932;BME280;41837;55.700;37.984;2023-04-08T12:10:28;101067.06;;;11.38;42.33
55932;BME280;41837;55.700;37.984;2023-04-08T12:12:54;101074.50;;;11.53;41.93
55932;BME280;41837;55.700;37.984;2023-04-08T12:15:21;101062.53;;;11.77;41.40
55932;BME280;41837;55.700;37.984;2023-04-08T12:17:50;101066.69;;;11.52;41.49
55932;BME280;41837;55.700;37.984;2023-04-08T12:20:16;101074.13;;;11.34;40.79
55932;BME280;41837;55.700;37.984;2023-04-08T12:22:43;101066.13;;;11.41;40.34
55932;BME280;41837;55.700;37.984;2023-04-08T12:25:09;101067.81;;;11.42;40.71
55932;BME280;41837;55.700;37.984;2023-04-08T12:27:35;101069.44;;;11.47;41.98
55932;BME280;41837;55.700;37.984;2023-04-08T12:30:02;101067.25;;;11.30;41.94
55932;BME280;41837;55.700;37.984;2023-04-08T12:32:29;101059.13;;;11.41;42.19
55932;BME280;41837;55.700;37.984;2023-04-08T12:34:56;101062.44;;;11.48;41.06
55932;BME280;41837;55.700;37.984;2023-04-08T12:37:21;101064.38;;;11.05;41.00
55932;BME280;41837;55.700;37.984;2023-04-08T12:39:48;101054.16;;;11.30;40.85
55932;BME280;41837;55.700;37.984;2023-04-08T12:42:14;101059.56;;;11.57;40.74
55932;BME280;41837;55.700;37.984;2023-04-08T12:44:41;101052.09;;;11.43;40.77
55932;BME280;41837;55.700;37.984;2023-04-08T12:47:07;101044.47;;;11.67;41.39
55932;BME280;41837;55.700;37.984;2023-04-08T12:49:33;101050.97;;;11.86;41.18
55932;BME280;41837;55.700;37.984;2023-04-08T12:51:59;101042.94;;;11.92;42.18
55932;BME280;41837;55.700;37.984;2023-04-08T12:54:25;101050.41;;;11.73;41.82
55932;BME280;41837;55.700;37.984;2023-04-08T12:56:51;101040.84;;;11.39;42.25
55932;BME280;41837;55.700;37.984;2023-04-08T12:59:17;101035.44;;;11.46;41.42
55932;BME280;41837;55.700;37.984;2023-04-08T13:01:44;101034.75;;;11.39;40.75
55932;BME280;41837;55.700;37.984;2023-04-08T13:04:10;101033.13;;;11.68;41.01
55932;BME280;41837;55.700;37.984;2023-04-08T13:06:37;101033.22;;;11.63;40.84
55932;BME280;41837;55.700;37.984;2023-04-08T13:09:03;101037.81;;;11.55;40.81